sensor_id;sensor_type;location;lat;lon;timestamp;P1;durP1;ratioP1;P2;durP2;ratioP2
21198;SDS011;10757;51.038;3.712;2022-07-10T00:01:11;9.68;;;4.20;;
21198;SDS011;10757;51.038;3.712;2022-07-10T00:03:37;11.85;;;3.95;;
21198;SDS011;10757;51.038;3.712;2022-07-10T00:06:02;9.63;;;4.18;;
21198;SDS011;10757;51.038;3.712;2022-07-10T00:08:28;8.88;;;3.17;;
21198;SDS011;10757;51.038;3.712;2022-07-10T00:10:53;9.43;;;3.20;;
21198;SDS011;10757;51.038;3.712;2022-07-10T00:13:19;7.63;;;3.05;;
21198;SDS011;10757;51.038;3.712;2022-07-10T00:15:45;11.68;;;3.85;;
21198;SDS011;10757;51.038;3.712;2022-07-10T00:18:10;9.07;;;3.05;;
21198;SDS011;10757;51.038;3.712;2022-07-10T00:20:36;13.55;;;3.00;;
21198;SDS011;10757;51.038;3.712;2022-07-10T00:23:04;10.82;;;3.17;;
21198;SDS011;10757;51.038;3.712;2022-07-10T00:25:29;10.13;;;3.20;;
21198;SDS011;10757;51.038;3.712;2022-07-10T00:27:55;11.02;;;3.58;;
21198;SDS011;10757;51.038;3.712;2022-07-10T00:30:21;12.52;;;3.30;;
21198;SDS011;10757;51.038;3.712;2022-07-10T00:32:47;7.78;;;2.92;;
21198;SDS011;10757;51.038;3.712;2022-07-10T00:35:12;10.23;;;4.13;;
21198;SDS011;10757;51.038;3.712;2022-07-10T00:37:38;12.75;;;4.10;;
21198;SDS011;10757;51.038;3.712;2022-07-10T00:40:04;7.47;;;3.70;;
21198;SDS011;10757;51.038;3.712;2022-07-10T00:42:31;10.55;;;3.10;;
21198;SDS011;10757;51.038;3.712;2022-07-10T00:44:57;11.20;;;3.70;;
21198;SDS011;10757;51.038;3.712;2022-07-10T00:47:22;12.00;;;3.70;;
21198;SDS011;10757;51.038;3.712;2022-07-10T00:49:48;12.15;;;4.20;;
21198;SDS011;10757;51.038;3.712;2022-07-10T00:52:15;9.85;;;3.67;;
21198;SDS011;10757;51.038;3.712;2022-07-10T00:54:42;10.93;;;3.72;;
21198;SDS011;10757;51.038;3.712;2022-07-10T00:57:10;9.85;;;3.80;;
21198;SDS011;10757;51.038;3.712;2022-07-10T00:59:39;10.63;;;4.75;;
21198;SDS011;10757;51.038;3.712;2022-07-10T01:02:05;14.27;;;4.60;;
21198;SDS011;10757;51.038;3.712;2022-07-10T01:04:32;9.63;;;4.63;;
21198;SDS011;10757;51.038;3.712;2022-07-10T01:06:58;12.23;;;4.57;;
21198;SDS011;10757;51.038;3.712;2022-07-10T01:09:24;9.98;;;4.63;;
21198;SDS011;10757;51.038;3.712;2022-07-10T01:11:50;8.88;;;4.72;;
21198;SDS011;10757;51.038;3.712;2022-07-10T01:14:16;11.85;;;4.70;;
21198;SDS011;10757;51.038;3.712;2022-07-10T01:16:42;13.30;;;4.90;;
21198;SDS011;10757;51.038;3.712;2022-07-10T01:19:08;8.60;;;4.32;;
21198;SDS011;10757;51.038;3.712;2022-07-10T01:21:34;10.32;;;4.72;;
21198;SDS011;10757;51.038;3.712;2022-07-10T01:24:08;10.68;;;4.47;;
21198;SDS011;10757;51.038;3.712;2022-07-10T01:26:35;9.50;;;4.05;;
21198;SDS011;10757;51.038;3.712;2022-07-10T01:29:03;10.57;;;4.53;;
21198;SDS011;10757;51.038;3.712;2022-07-10T01:31:30;10.35;;;4.43;;
21198;SDS011;10757;51.038;3.712;2022-07-10T01:33:56;11.27;;;4.10;;
21198;SDS011;10757;51.038;3.712;2022-07-10T01:36:24;11.07;;;4.43;;
21198;SDS011;10757;51.038;3.712;2022-07-10T01:38:53;11.75;;;4.70;;
21198;SDS011;10757;51.038;3.712;2022-07-10T01:41:20;11.95;;;4.90;;
21198;SDS011;10757;51.038;3.712;2022-07-10T01:43:46;11.40;;;4.78;;
21198;SDS011;10757;51.038;3.712;2022-07-10T01:46:13;11.23;;;5.18;;
21198;SDS011;10757;51.038;3.712;2022-07-10T01:48:39;13.40;;;5.13;;
21198;SDS011;10757;51.038;3.712;2022-07-10T01:51:05;13.55;;;4.70;;
21198;SDS011;10757;51.038;3.712;2022-07-10T01:53:32;8.68;;;4.28;;
21198;SDS011;10757;51.038;3.712;2022-07-10T01:55:58;12.07;;;4.50;;
21198;SDS011;10757;51.038;3.712;2022-07-10T01:58:25;11.68;;;5.03;;
21198;SDS011;10757;51.038;3.712;2022-07-10T02:00:51;6.10;;;3.60;;
21198;SDS011;10757;51.038;3.712;2022-07-10T02:03:16;12.65;;;4.93;;
21198;SDS011;10757;51.038;3.712;2022-07-10T02:06:01;16.55;;;4.40;;
21198;SDS011;10757;51.038;3.712;2022-07-10T02:08:26;11.07;;;4.60;;
21198;SDS011;10757;51.038;3.712;2022-07-10T02:10:52;15.98;;;4.40;;
21198;SDS011;10757;51.038;3.712;2022-07-10T02:13:19;7.47;;;4.50;;
21198;SDS011;10757;51.038;3.712;2022-07-10T02:15:48;9.60;;;4.22;;
21198;SDS011;10757;51.038;3.712;2022-07-10T02:18:14;9.98;;;4.00;;
21198;SDS011;10757;51.038;3.712;2022-07-10T02:20:40;8.73;;;4.93;;
21198;SDS011;10757;51.038;3.712;2022-07-10T02:23:06;11.40;;;4.60;;
21198;SDS011;10757;51.038;3.712;2022-07-10T02:25:32;7.00;;;4.13;;
21198;SDS011;10757;51.038;3.712;2022-07-10T02:27:59;10.27;;;4.60;;
21198;SDS011;10757;51.038;3.712;2022-07-10T02:30:25;12.93;;;4.43;;
21198;SDS011;10757;51.038;3.712;2022-07-10T02:32:51;12.10;;;4.70;;
21198;SDS011;10757;51.038;3.712;2022-07-10T02:35:17;7.72;;;4.10;;
21198;SDS011;10757;51.038;3.712;2022-07-10T02:37:43;13.20;;;4.45;;
21198;SDS011;10757;51.038;3.712;2022-07-10T02:40:09;13.88;;;4.38;;
21198;SDS011;10757;51.038;3.712;2022-07-10T02:42:34;9.93;;;4.60;;
21198;SDS011;10757;51.038;3.712;2022-07-10T02:45:00;10.43;;;4.68;;
21198;SDS011;10757;51.038;3.712;2022-07-10T02:47:26;9.95;;;4.60;;
21198;SDS011;10757;51.038;3.712;2022-07-10T02:49:51;12.80;;;4.80;;
21198;SDS011;10757;51.038;3.712;2022-07-10T02:52:17;10.70;;;4.75;;
21198;SDS011;10757;51.038;3.712;2022-07-10T02:54:43;13.05;;;5.07;;
21198;SDS011;10757;51.038;3.712;2022-07-10T02:57:08;12.70;;;4.80;;
21198;SDS011;10757;51.038;3.712;2022-07-10T02:59:34;11.45;;;4.47;;
21198;SDS011;10757;51.038;3.712;2022-07-10T03:02:00;12.20;;;4.95;;
21198;SDS011;10757;51.038;3.712;2022-07-10T03:04:26;10.15;;;4.55;;
21198;SDS011;10757;51.038;3.712;2022-07-10T03:06:52;12.23;;;4.68;;
21198;SDS011;10757;51.038;3.712;2022-07-10T03:09:17;9.77;;;5.35;;
21198;SDS011;10757;51.038;3.712;2022-07-10T03:11:43;8.23;;;4.32;;
21198;SDS011;10757;51.038;3.712;2022-07-10T03:14:09;11.65;;;4.78;;
21198;SDS011;10757;51.038;3.712;2022-07-10T03:16:34;10.98;;;5.10;;
21198;SDS011;10757;51.038;3.712;2022-07-10T03:19:00;7.43;;;5.25;;
21198;SDS011;10757;51.038;3.712;2022-07-10T03:21:26;11.15;;;5.28;;
21198;SDS011;10757;51.038;3.712;2022-07-10T03:23:51;11.20;;;5.15;;
21198;SDS011;10757;51.038;3.712;2022-07-10T03:26:17;10.00;;;5.25;;
21198;SDS011;10757;51.038;3.712;2022-07-10T03:28:42;14.27;;;6.32;;
21198;SDS011;10757;51.038;3.712;2022-07-10T03:31:08;10.73;;;5.68;;
21198;SDS011;10757;51.038;3.712;2022-07-10T03:33:34;11.60;;;5.40;;
21198;SDS011;10757;51.038;3.712;2022-07-10T03:35:59;10.75;;;5.35;;
21198;SDS011;10757;51.038;3.712;2022-07-10T03:38:26;10.13;;;6.00;;
21198;SDS011;10757;51.038;3.712;2022-07-10T03:40:52;12.63;;;5.55;;
21198;SDS011;10757;51.038;3.712;2022-07-10T03:43:18;9.95;;;4.70;;
21198;SDS011;10757;51.038;3.712;2022-07-10T03:45:44;18.48;;;5.28;;
21198;SDS011;10757;51.038;3.712;2022-07-10T03:48:09;9.38;;;4.80;;
21198;SDS011;10757;51.038;3.712;2022-07-10T03:50:35;10.60;;;5.03;;
21198;SDS011;10757;51.038;3.712;2022-07-10T03:53:00;8.38;;;4.95;;
21198;SDS011;10757;51.038;3.712;2022-07-10T03:55:26;11.25;;;5.00;;
21198;SDS011;10757;51.038;3.712;2022-07-10T03:57:52;11.35;;;5.30;;
21198;SDS011;10757;51.038;3.712;2022-07-10T04:00:22;9.85;;;4.80;;
21198;SDS011;10757;51.038;3.712;2022-07-10T04:02:58;13.00;;;4.68;;
21198;SDS011;10757;51.038;3.712;2022-07-10T04:05:26;10.52;;;4.35;;
21198;SDS011;10757;51.038;3.712;2022-07-10T04:07:56;7.63;;;4.47;;
21198;SDS011;10757;51.038;3.712;2022-07-10T04:10:23;13.90;;;4.90;;
21198;SDS011;10757;51.038;3.712;2022-07-10T04:12:50;11.93;;;4.20;;
21198;SDS011;10757;51.038;3.712;2022-07-10T04:15:17;12.55;;;4.25;;
21198;SDS011;10757;51.038;3.712;2022-07-10T04:17:43;8.93;;;4.30;;
21198;SDS011;10757;51.038;3.712;2022-07-10T04:20:09;13.55;;;4.05;;
21198;SDS011;10757;51.038;3.712;2022-07-10T04:22:35;10.25;;;3.75;;
21198;SDS011;10757;51.038;3.712;2022-07-10T04:27:31;8.38;;;3.85;;
21198;SDS011;10757;51.038;3.712;2022-07-10T04:29:57;10.07;;;4.10;;
21198;SDS011;10757;51.038;3.712;2022-07-10T04:32:23;12.70;;;3.75;;
21198;SDS011;10757;51.038;3.712;2022-07-10T04:34:49;12.18;;;4.28;;
21198;SDS011;10757;51.038;3.712;2022-07-10T04:37:15;9.00;;;3.83;;
21198;SDS011;10757;51.038;3.712;2022-07-10T04:39:41;9.85;;;3.80;;
21198;SDS011;10757;51.038;3.712;2022-07-10T04:42:07;8.55;;;3.45;;
21198;SDS011;10757;51.038;3.712;2022-07-10T04:44:34;11.27;;;4.20;;
21198;SDS011;10757;51.038;3.712;2022-07-10T04:47:04;7.85;;;3.80;;
21198;SDS011;10757;51.038;3.712;2022-07-10T04:49:31;7.95;;;4.00;;
21198;SDS011;10757;51.038;3.712;2022-07-10T04:51:58;9.23;;;3.45;;
21198;SDS011;10757;51.038;3.712;2022-07-10T04:54:24;8.02;;;3.90;;
21198;SDS011;10757;51.038;3.712;2022-07-10T04:56:50;12.90;;;3.65;;
21198;SDS011;10757;51.038;3.712;2022-07-10T04:59:15;8.10;;;3.67;;
21198;SDS011;10757;51.038;3.712;2022-07-10T05:01:42;9.13;;;4.15;;
21198;SDS011;10757;51.038;3.712;2022-07-10T05:04:08;6.85;;;2.95;;
21198;SDS011;10757;51.038;3.712;2022-07-10T05:06:35;6.63;;;3.53;;
21198;SDS011;10757;51.038;3.712;2022-07-10T05:09:02;8.90;;;2.80;;
21198;SDS011;10757;51.038;3.712;2022-07-10T05:11:28;9.15;;;3.05;;
21198;SDS011;10757;51.038;3.712;2022-07-10T05:13:55;6.38;;;2.60;;
21198;SDS011;10757;51.038;3.712;2022-07-10T05:16:21;5.90;;;2.50;;
21198;SDS011;10757;51.038;3.712;2022-07-10T05:18:47;9.40;;;2.60;;
21198;SDS011;10757;51.038;3.712;2022-07-10T05:21:13;8.35;;;2.88;;
21198;SDS011;10757;51.038;3.712;2022-07-10T05:23:38;6.97;;;2.70;;
21198;SDS011;10757;51.038;3.712;2022-07-10T05:26:04;6.88;;;2.35;;
21198;SDS011;10757;51.038;3.712;2022-07-10T05:28:30;6.05;;;2.17;;
21198;SDS011;10757;51.038;3.712;2022-07-10T05:30:56;8.60;;;2.20;;
21198;SDS011;10757;51.038;3.712;2022-07-10T05:33:22;8.85;;;2.08;;
21198;SDS011;10757;51.038;3.712;2022-07-10T05:35:48;5.50;;;2.05;;
21198;SDS011;10757;51.038;3.712;2022-07-10T05:38:13;6.50;;;1.88;;
21198;SDS011;10757;51.038;3.712;2022-07-10T05:40:39;5.15;;;2.08;;
21198;SDS011;10757;51.038;3.712;2022-07-10T05:43:05;7.43;;;2.33;;
21198;SDS011;10757;51.038;3.712;2022-07-10T05:45:31;7.13;;;2.10;;
21198;SDS011;10757;51.038;3.712;2022-07-10T05:47:57;9.40;;;2.53;;
21198;SDS011;10757;51.038;3.712;2022-07-10T05:50:22;6.10;;;2.05;;
21198;SDS011;10757;51.038;3.712;2022-07-10T05:52:49;5.70;;;1.90;;
21198;SDS011;10757;51.038;3.712;2022-07-10T05:55:15;6.05;;;2.03;;
21198;SDS011;10757;51.038;3.712;2022-07-10T05:57:40;6.43;;;1.75;;
21198;SDS011;10757;51.038;3.712;2022-07-10T06:00:07;5.72;;;1.70;;
21198;SDS011;10757;51.038;3.712;2022-07-10T06:02:33;12.55;;;2.10;;
21198;SDS011;10757;51.038;3.712;2022-07-10T06:04:59;5.75;;;1.63;;
21198;SDS011;10757;51.038;3.712;2022-07-10T06:07:25;6.55;;;1.90;;
21198;SDS011;10757;51.038;3.712;2022-07-10T06:09:52;8.50;;;2.60;;
21198;SDS011;10757;51.038;3.712;2022-07-10T06:12:18;5.47;;;1.70;;
21198;SDS011;10757;51.038;3.712;2022-07-10T06:14:43;9.38;;;2.00;;
21198;SDS011;10757;51.038;3.712;2022-07-10T06:17:10;6.88;;;1.50;;
21198;SDS011;10757;51.038;3.712;2022-07-10T06:19:36;5.07;;;1.40;;
21198;SDS011;10757;51.038;3.712;2022-07-10T06:22:02;8.57;;;1.60;;
21198;SDS011;10757;51.038;3.712;2022-07-10T06:24:46;4.75;;;1.67;;
21198;SDS011;10757;51.038;3.712;2022-07-10T06:27:12;9.48;;;2.55;;
21198;SDS011;10757;51.038;3.712;2022-07-10T06:29:38;6.30;;;2.03;;
21198;SDS011;10757;51.038;3.712;2022-07-10T06:32:04;4.88;;;1.60;;
21198;SDS011;10757;51.038;3.712;2022-07-10T06:34:31;8.52;;;2.00;;
21198;SDS011;10757;51.038;3.712;2022-07-10T06:36:57;6.63;;;1.35;;
21198;SDS011;10757;51.038;3.712;2022-07-10T06:39:23;6.22;;;1.60;;
21198;SDS011;10757;51.038;3.712;2022-07-10T06:41:49;4.35;;;1.60;;
21198;SDS011;10757;51.038;3.712;2022-07-10T06:44:18;5.03;;;1.70;;
21198;SDS011;10757;51.038;3.712;2022-07-10T06:46:45;6.25;;;1.58;;
21198;SDS011;10757;51.038;3.712;2022-07-10T06:49:31;4.10;;;1.23;;
21198;SDS011;10757;51.038;3.712;2022-07-10T06:51:57;7.72;;;1.50;;
21198;SDS011;10757;51.038;3.712;2022-07-10T06:54:28;7.00;;;1.60;;
21198;SDS011;10757;51.038;3.712;2022-07-10T06:56:53;5.03;;;1.58;;
21198;SDS011;10757;51.038;3.712;2022-07-10T06:59:19;5.10;;;1.30;;
21198;SDS011;10757;51.038;3.712;2022-07-10T07:01:45;5.75;;;1.40;;
21198;SDS011;10757;51.038;3.712;2022-07-10T07:06:39;6.85;;;1.60;;
21198;SDS011;10757;51.038;3.712;2022-07-10T07:09:05;4.95;;;1.50;;
21198;SDS011;10757;51.038;3.712;2022-07-10T07:11:30;8.35;;;1.73;;
21198;SDS011;10757;51.038;3.712;2022-07-10T07:13:56;7.55;;;1.42;;
21198;SDS011;10757;51.038;3.712;2022-07-10T07:16:22;8.18;;;1.45;;
21198;SDS011;10757;51.038;3.712;2022-07-10T07:19:02;3.95;;;1.25;;
21198;SDS011;10757;51.038;3.712;2022-07-10T07:21:30;6.72;;;1.70;;
21198;SDS011;10757;51.038;3.712;2022-07-10T07:24:14;7.25;;;1.50;;
21198;SDS011;10757;51.038;3.712;2022-07-10T07:26:40;9.25;;;2.30;;
21198;SDS011;10757;51.038;3.712;2022-07-10T07:29:06;5.80;;;1.80;;
21198;SDS011;10757;51.038;3.712;2022-07-10T07:31:31;5.93;;;1.80;;
21198;SDS011;10757;51.038;3.712;2022-07-10T07:33:58;6.60;;;1.92;;
21198;SDS011;10757;51.038;3.712;2022-07-10T07:36:23;8.32;;;1.58;;
21198;SDS011;10757;51.038;3.712;2022-07-10T07:38:49;5.65;;;1.98;;
21198;SDS011;10757;51.038;3.712;2022-07-10T07:41:15;7.82;;;2.15;;
21198;SDS011;10757;51.038;3.712;2022-07-10T07:43:40;7.55;;;2.22;;
21198;SDS011;10757;51.038;3.712;2022-07-10T07:46:06;15.85;;;2.33;;
21198;SDS011;10757;51.038;3.712;2022-07-10T07:48:33;4.93;;;2.00;;
21198;SDS011;10757;51.038;3.712;2022-07-10T07:50:59;6.90;;;2.15;;
21198;SDS011;10757;51.038;3.712;2022-07-10T07:53:25;8.27;;;2.35;;
21198;SDS011;10757;51.038;3.712;2022-07-10T07:55:50;6.50;;;2.05;;
21198;SDS011;10757;51.038;3.712;2022-07-10T07:58:18;6.63;;;2.08;;
21198;SDS011;10757;51.038;3.712;2022-07-10T08:00:46;8.70;;;2.40;;
21198;SDS011;10757;51.038;3.712;2022-07-10T08:03:12;9.20;;;2.30;;
21198;SDS011;10757;51.038;3.712;2022-07-10T08:05:37;6.75;;;2.10;;
21198;SDS011;10757;51.038;3.712;2022-07-10T08:08:03;6.50;;;2.10;;
21198;SDS011;10757;51.038;3.712;2022-07-10T08:10:31;5.63;;;2.13;;
21198;SDS011;10757;51.038;3.712;2022-07-10T08:12:57;6.68;;;2.20;;
21198;SDS011;10757;51.038;3.712;2022-07-10T08:15:23;5.25;;;1.95;;
21198;SDS011;10757;51.038;3.712;2022-07-10T08:17:49;12.60;;;2.80;;
21198;SDS011;10757;51.038;3.712;2022-07-10T08:20:16;8.98;;;2.58;;
21198;SDS011;10757;51.038;3.712;2022-07-10T08:22:42;6.93;;;2.40;;
21198;SDS011;10757;51.038;3.712;2022-07-10T08:25:10;5.95;;;2.42;;
21198;SDS011;10757;51.038;3.712;2022-07-10T08:27:36;6.82;;;2.20;;
21198;SDS011;10757;51.038;3.712;2022-07-10T08:30:03;4.45;;;1.90;;
21198;SDS011;10757;51.038;3.712;2022-07-10T08:32:30;6.10;;;2.20;;
21198;SDS011;10757;51.038;3.712;2022-07-10T08:34:56;7.40;;;2.13;;
21198;SDS011;10757;51.038;3.712;2022-07-10T08:37:24;7.80;;;2.88;;
21198;SDS011;10757;51.038;3.712;2022-07-10T08:39:51;11.43;;;2.97;;
21198;SDS011;10757;51.038;3.712;2022-07-10T08:42:17;10.27;;;2.55;;
21198;SDS011;10757;51.038;3.712;2022-07-10T08:44:44;6.75;;;1.60;;
21198;SDS011;10757;51.038;3.712;2022-07-10T08:47:10;6.00;;;2.15;;
21198;SDS011;10757;51.038;3.712;2022-07-10T08:49:38;5.47;;;1.85;;
21198;SDS011;10757;51.038;3.712;2022-07-10T08:52:34;6.35;;;1.83;;
21198;SDS011;10757;51.038;3.712;2022-07-10T08:55:07;5.60;;;1.60;;
21198;SDS011;10757;51.038;3.712;2022-07-10T08:57:36;6.15;;;1.45;;
21198;SDS011;10757;51.038;3.712;2022-07-10T09:00:04;4.13;;;1.45;;
21198;SDS011;10757;51.038;3.712;2022-07-10T09:02:30;6.97;;;1.77;;
21198;SDS011;10757;51.038;3.712;2022-07-10T09:04:58;7.35;;;1.63;;
21198;SDS011;10757;51.038;3.712;2022-07-10T09:07:24;6.72;;;1.50;;
21198;SDS011;10757;51.038;3.712;2022-07-10T09:09:59;5.95;;;1.98;;
21198;SDS011;10757;51.038;3.712;2022-07-10T09:12:32;5.80;;;1.75;;
21198;SDS011;10757;51.038;3.712;2022-07-10T09:15:18;7.78;;;2.17;;
21198;SDS011;10757;51.038;3.712;2022-07-10T09:20:54;5.10;;;1.58;;
21198;SDS011;10757;51.038;3.712;2022-07-10T09:23:18;5.45;;;2.00;;
21198;SDS011;10757;51.038;3.712;2022-07-10T09:25:48;5.38;;;1.42;;
21198;SDS011;10757;51.038;3.712;2022-07-10T09:28:18;8.07;;;1.58;;
21198;SDS011;10757;51.038;3.712;2022-07-10T09:30:45;6.80;;;1.27;;
21198;SDS011;10757;51.038;3.712;2022-07-10T09:41:13;5.93;;;1.60;;
21198;SDS011;10757;51.038;3.712;2022-07-10T09:43:55;5.15;;;1.60;;
21198;SDS011;10757;51.038;3.712;2022-07-10T09:46:30;4.30;;;1.42;;
21198;SDS011;10757;51.038;3.712;2022-07-10T09:49:01;5.38;;;1.70;;
21198;SDS011;10757;51.038;3.712;2022-07-10T09:51:29;6.72;;;1.13;;
21198;SDS011;10757;51.038;3.712;2022-07-10T09:53:57;5.70;;;2.00;;
21198;SDS011;10757;51.038;3.712;2022-07-10T09:56:27;7.78;;;1.80;;
21198;SDS011;10757;51.038;3.712;2022-07-10T09:58:58;7.82;;;1.33;;
21198;SDS011;10757;51.038;3.712;2022-07-10T10:01:25;7.82;;;1.50;;
21198;SDS011;10757;51.038;3.712;2022-07-10T10:03:54;5.45;;;1.20;;
21198;SDS011;10757;51.038;3.712;2022-07-10T10:06:23;6.10;;;1.90;;
21198;SDS011;10757;51.038;3.712;2022-07-10T10:09:15;5.22;;;1.40;;
21198;SDS011;10757;51.038;3.712;2022-07-10T10:11:59;7.07;;;1.92;;
21198;SDS011;10757;51.038;3.712;2022-07-10T10:14:30;3.67;;;1.35;;
21198;SDS011;10757;51.038;3.712;2022-07-10T10:16:57;6.75;;;1.65;;
21198;SDS011;10757;51.038;3.712;2022-07-10T10:19:25;4.45;;;1.65;;
21198;SDS011;10757;51.038;3.712;2022-07-10T10:22:12;5.90;;;1.73;;
21198;SDS011;10757;51.038;3.712;2022-07-10T10:24:38;5.47;;;1.80;;
21198;SDS011;10757;51.038;3.712;2022-07-10T10:27:05;6.75;;;1.70;;
21198;SDS011;10757;51.038;3.712;2022-07-10T10:29:35;9.50;;;1.90;;
21198;SDS011;10757;51.038;3.712;2022-07-10T10:32:02;5.43;;;1.70;;
21198;SDS011;10757;51.038;3.712;2022-07-10T10:34:44;4.70;;;1.48;;
21198;SDS011;10757;51.038;3.712;2022-07-10T10:39:53;5.65;;;1.40;;
21198;SDS011;10757;51.038;3.712;2022-07-10T10:42:31;5.10;;;1.70;;
21198;SDS011;10757;51.038;3.712;2022-07-10T10:45:32;3.67;;;1.17;;
21198;SDS011;10757;51.038;3.712;2022-07-10T10:50:38;5.10;;;1.33;;
21198;SDS011;10757;51.038;3.712;2022-07-10T10:53:23;4.38;;;1.23;;
21198;SDS011;10757;51.038;3.712;2022-07-10T10:58:28;3.58;;;1.40;;
21198;SDS011;10757;51.038;3.712;2022-07-10T11:01:24;4.57;;;1.30;;
21198;SDS011;10757;51.038;3.712;2022-07-10T11:06:42;5.03;;;1.40;;
21198;SDS011;10757;51.038;3.712;2022-07-10T11:14:33;3.97;;;1.55;;
21198;SDS011;10757;51.038;3.712;2022-07-10T11:17:04;6.40;;;2.80;;
21198;SDS011;10757;51.038;3.712;2022-07-10T11:19:31;4.35;;;1.27;;
21198;SDS011;10757;51.038;3.712;2022-07-10T11:30:46;4.88;;;1.10;;
21198;SDS011;10757;51.038;3.712;2022-07-10T11:33:11;4.90;;;1.20;;
21198;SDS011;10757;51.038;3.712;2022-07-10T11:35:38;3.53;;;1.30;;
21198;SDS011;10757;51.038;3.712;2022-07-10T11:38:05;4.47;;;1.25;;
21198;SDS011;10757;51.038;3.712;2022-07-10T11:40:30;4.57;;;1.80;;
21198;SDS011;10757;51.038;3.712;2022-07-10T11:43:04;4.47;;;1.40;;
21198;SDS011;10757;51.038;3.712;2022-07-10T11:45:36;5.15;;;1.30;;
21198;SDS011;10757;51.038;3.712;2022-07-10T11:48:04;5.78;;;1.55;;
21198;SDS011;10757;51.038;3.712;2022-07-10T11:50:35;4.63;;;1.30;;
21198;SDS011;10757;51.038;3.712;2022-07-10T11:53:02;3.47;;;1.48;;
21198;SDS011;10757;51.038;3.712;2022-07-10T11:55:28;4.25;;;1.50;;
21198;SDS011;10757;51.038;3.712;2022-07-10T11:57:56;5.38;;;1.40;;
21198;SDS011;10757;51.038;3.712;2022-07-10T12:00:22;5.80;;;1.30;;
21198;SDS011;10757;51.038;3.712;2022-07-10T12:02:51;2.55;;;1.00;;
21198;SDS011;10757;51.038;3.712;2022-07-10T12:05:33;4.72;;;1.30;;
21198;SDS011;10757;51.038;3.712;2022-07-10T12:08:00;4.90;;;1.42;;
21198;SDS011;10757;51.038;3.712;2022-07-10T12:10:27;3.10;;;1.00;;
21198;SDS011;10757;51.038;3.712;2022-07-10T12:12:53;3.58;;;1.15;;
21198;SDS011;10757;51.038;3.712;2022-07-10T12:15:37;4.80;;;1.05;;
21198;SDS011;10757;51.038;3.712;2022-07-10T12:18:05;6.20;;;1.17;;
21198;SDS011;10757;51.038;3.712;2022-07-10T12:20:39;4.88;;;1.23;;
21198;SDS011;10757;51.038;3.712;2022-07-10T12:23:10;4.35;;;1.30;;
21198;SDS011;10757;51.038;3.712;2022-07-10T12:25:37;4.68;;;1.30;;
21198;SDS011;10757;51.038;3.712;2022-07-10T12:28:03;4.68;;;1.30;;
21198;SDS011;10757;51.038;3.712;2022-07-10T12:30:42;2.80;;;1.10;;
21198;SDS011;10757;51.038;3.712;2022-07-10T12:33:18;4.15;;;1.00;;
21198;SDS011;10757;51.038;3.712;2022-07-10T12:35:46;2.70;;;1.02;;
21198;SDS011;10757;51.038;3.712;2022-07-10T12:40:49;7.35;;;1.17;;
21198;SDS011;10757;51.038;3.712;2022-07-10T12:43:28;7.50;;;1.13;;
21198;SDS011;10757;51.038;3.712;2022-07-10T12:46:09;6.97;;;1.58;;
21198;SDS011;10757;51.038;3.712;2022-07-10T12:48:41;5.00;;;1.38;;
21198;SDS011;10757;51.038;3.712;2022-07-10T12:51:28;4.93;;;1.20;;
21198;SDS011;10757;51.038;3.712;2022-07-10T12:56:29;3.15;;;1.17;;
21198;SDS011;10757;51.038;3.712;2022-07-10T12:59:00;4.85;;;2.10;;
21198;SDS011;10757;51.038;3.712;2022-07-10T13:01:28;5.15;;;1.10;;
21198;SDS011;10757;51.038;3.712;2022-07-10T13:04:06;5.18;;;1.17;;
21198;SDS011;10757;51.038;3.712;2022-07-10T13:06:33;4.22;;;1.00;;
21198;SDS011;10757;51.038;3.712;2022-07-10T13:09:01;2.70;;;1.13;;
21198;SDS011;10757;51.038;3.712;2022-07-10T13:11:27;3.90;;;1.20;;
21198;SDS011;10757;51.038;3.712;2022-07-10T13:13:53;5.13;;;1.45;;
21198;SDS011;10757;51.038;3.712;2022-07-10T13:16:21;5.45;;;1.35;;
21198;SDS011;10757;51.038;3.712;2022-07-10T13:18:47;5.40;;;1.70;;
21198;SDS011;10757;51.038;3.712;2022-07-10T13:21:13;2.92;;;0.98;;
21198;SDS011;10757;51.038;3.712;2022-07-10T13:23:39;5.10;;;1.20;;
21198;SDS011;10757;51.038;3.712;2022-07-10T13:26:05;3.83;;;1.08;;
21198;SDS011;10757;51.038;3.712;2022-07-10T13:28:32;4.70;;;1.50;;
21198;SDS011;10757;51.038;3.712;2022-07-10T13:30:58;3.58;;;1.23;;
21198;SDS011;10757;51.038;3.712;2022-07-10T13:33:25;6.38;;;1.30;;
21198;SDS011;10757;51.038;3.712;2022-07-10T13:35:53;3.85;;;1.30;;
21198;SDS011;10757;51.038;3.712;2022-07-10T13:38:19;4.32;;;1.65;;
21198;SDS011;10757;51.038;3.712;2022-07-10T13:40:46;3.45;;;1.25;;
21198;SDS011;10757;51.038;3.712;2022-07-10T13:43:12;4.43;;;1.35;;
21198;SDS011;10757;51.038;3.712;2022-07-10T13:45:39;4.50;;;1.33;;
21198;SDS011;10757;51.038;3.712;2022-07-10T13:48:13;6.30;;;1.27;;
21198;SDS011;10757;51.038;3.712;2022-07-10T13:50:41;5.18;;;1.52;;
21198;SDS011;10757;51.038;3.712;2022-07-10T13:53:09;8.43;;;1.50;;
21198;SDS011;10757;51.038;3.712;2022-07-10T13:55:37;7.47;;;3.60;;
21198;SDS011;10757;51.038;3.712;2022-07-10T13:58:03;4.20;;;1.15;;
21198;SDS011;10757;51.038;3.712;2022-07-10T14:00:29;6.85;;;1.60;;
21198;SDS011;10757;51.038;3.712;2022-07-10T14:02:55;3.83;;;1.38;;
21198;SDS011;10757;51.038;3.712;2022-07-10T14:05:22;4.03;;;1.30;;
21198;SDS011;10757;51.038;3.712;2022-07-10T14:07:50;5.95;;;1.40;;
21198;SDS011;10757;51.038;3.712;2022-07-10T14:10:15;4.97;;;1.05;;
21198;SDS011;10757;51.038;3.712;2022-07-10T14:12:41;4.05;;;1.00;;
21198;SDS011;10757;51.038;3.712;2022-07-10T14:15:07;3.35;;;1.05;;
21198;SDS011;10757;51.038;3.712;2022-07-10T14:17:34;2.88;;;0.90;;
21198;SDS011;10757;51.038;3.712;2022-07-10T14:19:59;3.85;;;1.10;;
21198;SDS011;10757;51.038;3.712;2022-07-10T14:22:25;5.60;;;1.92;;
21198;SDS011;10757;51.038;3.712;2022-07-10T14:24:51;6.78;;;1.42;;
21198;SDS011;10757;51.038;3.712;2022-07-10T14:27:18;4.40;;;1.60;;
21198;SDS011;10757;51.038;3.712;2022-07-10T14:29:44;3.42;;;1.25;;
21198;SDS011;10757;51.038;3.712;2022-07-10T14:32:10;3.78;;;0.95;;
21198;SDS011;10757;51.038;3.712;2022-07-10T14:34:35;5.07;;;1.02;;
21198;SDS011;10757;51.038;3.712;2022-07-10T14:37:01;3.45;;;0.98;;
21198;SDS011;10757;51.038;3.712;2022-07-10T14:39:28;6.13;;;1.27;;
21198;SDS011;10757;51.038;3.712;2022-07-10T14:41:53;6.05;;;1.05;;
21198;SDS011;10757;51.038;3.712;2022-07-10T14:44:19;2.92;;;0.80;;
21198;SDS011;10757;51.038;3.712;2022-07-10T14:46:45;3.72;;;1.05;;
21198;SDS011;10757;51.038;3.712;2022-07-10T14:49:10;3.17;;;1.20;;
21198;SDS011;10757;51.038;3.712;2022-07-10T14:51:38;3.33;;;1.00;;
21198;SDS011;10757;51.038;3.712;2022-07-10T14:54:04;2.92;;;1.00;;
21198;SDS011;10757;51.038;3.712;2022-07-10T14:56:30;5.05;;;1.48;;
21198;SDS011;10757;51.038;3.712;2022-07-10T14:58:56;3.95;;;0.85;;
21198;SDS011;10757;51.038;3.712;2022-07-10T15:01:22;4.35;;;1.50;;
21198;SDS011;10757;51.038;3.712;2022-07-10T15:03:48;3.05;;;1.20;;
21198;SDS011;10757;51.038;3.712;2022-07-10T15:06:13;3.45;;;0.98;;
21198;SDS011;10757;51.038;3.712;2022-07-10T15:08:39;4.25;;;1.05;;
21198;SDS011;10757;51.038;3.712;2022-07-10T15:11:04;4.75;;;1.00;;
21198;SDS011;10757;51.038;3.712;2022-07-10T15:13:32;2.88;;;0.95;;
21198;SDS011;10757;51.038;3.712;2022-07-10T15:15:57;3.65;;;1.00;;
21198;SDS011;10757;51.038;3.712;2022-07-10T15:18:24;3.72;;;1.10;;
21198;SDS011;10757;51.038;3.712;2022-07-10T15:20:50;4.18;;;0.93;;
21198;SDS011;10757;51.038;3.712;2022-07-10T15:23:15;2.58;;;0.70;;
21198;SDS011;10757;51.038;3.712;2022-07-10T15:25:41;3.05;;;1.00;;
21198;SDS011;10757;51.038;3.712;2022-07-10T15:28:09;2.28;;;0.80;;
21198;SDS011;10757;51.038;3.712;2022-07-10T15:30:35;3.72;;;0.88;;
21198;SDS011;10757;51.038;3.712;2022-07-10T15:33:02;4.72;;;1.25;;
21198;SDS011;10757;51.038;3.712;2022-07-10T15:35:29;3.88;;;1.23;;